createdAt,value
2019-03-22T00:00:03.263Z,81.50
2019-03-22T00:02:32.963Z,80.80
2019-03-22T00:05:01.099Z,79.60
2019-03-22T00:07:27.856Z,82.50
2019-03-22T00:09:55.477Z,83.60
2019-03-22T00:12:24.083Z,81.30
2019-03-22T00:14:51.432Z,80.30
2019-03-22T00:17:18.212Z,81.10
2019-03-22T00:20:05.668Z,83.00
2019-03-22T00:22:34.243Z,80.30
2019-03-22T00:25:00.876Z,83.40
2019-03-22T00:27:28.007Z,83.30
2019-03-22T00:29:58.572Z,81.40
2019-03-22T00:32:25.188Z,79.70
2019-03-22T00:35:01.496Z,79.80
2019-03-22T00:37:46.896Z,81.90
2019-03-22T00:40:17.202Z,81.60
2019-03-22T00:42:45.103Z,81.10
2019-03-22T00:45:11.726Z,82.30
2019-03-22T00:47:38.824Z,82.10
2019-03-22T00:50:06.800Z,83.30
2019-03-22T00:52:36.551Z,83.90
2019-03-22T00:55:05.160Z,85.30
2019-03-22T00:57:33.594Z,88.30
2019-03-22T01:00:01.280Z,88.80
2019-03-22T01:02:30.799Z,88.30
2019-03-22T01:04:59.405Z,86.20
2019-03-22T01:07:26.259Z,86.30
2019-03-22T01:09:56.409Z,86.80
2019-03-22T01:12:27.665Z,84.40
2019-03-22T01:14:55.631Z,84.30
2019-03-22T01:17:23.390Z,85.30
2019-03-22T01:19:54.690Z,83.90
2019-03-22T01:22:22.523Z,85.80
2019-03-22T01:24:54.278Z,90.10
2019-03-22T01:27:23.187Z,90.20
2019-03-22T01:30:00.400Z,90.80
2019-03-22T01:32:29.089Z,90.10
2019-03-22T01:35:01.085Z,89.70
2019-03-22T01:37:32.418Z,86.80
2019-03-22T01:40:01.005Z,84.50
2019-03-22T01:42:28.837Z,83.80
2019-03-22T01:44:56.446Z,86.80
2019-03-22T01:47:23.272Z,84.70
2019-03-22T01:49:50.955Z,85.40
2019-03-22T01:52:22.034Z,88.70
2019-03-22T01:54:49.612Z,88.70
2019-03-22T01:57:33.932Z,89.60
2019-03-22T02:00:05.008Z,90.00
2019-03-22T02:02:31.958Z,90.40
2019-03-22T02:04:58.760Z,90.80
2019-03-22T02:07:26.942Z,91.80
2019-03-22T02:09:53.878Z,91.20
2019-03-22T02:12:20.578Z,91.10
2019-03-22T02:14:47.464Z,90.20
2019-03-22T02:17:14.852Z,91.00
2019-03-22T02:22:27.363Z,93.00
2019-03-22T02:24:54.059Z,91.90
2019-03-22T02:27:20.755Z,90.70
2019-03-22T02:29:49.269Z,90.00
2019-03-22T02:32:16.298Z,87.90
2019-03-22T02:34:42.984Z,86.10
2019-03-22T02:37:09.923Z,85.40
2019-03-22T02:39:36.831Z,87.20
2019-03-22T02:42:03.566Z,87.10
2019-03-22T02:44:30.318Z,87.50
2019-03-22T02:46:57.056Z,91.10
2019-03-22T02:49:23.907Z,91.10
2019-03-22T02:51:50.532Z,93.30
2019-03-22T02:54:17.173Z,92.50
2019-03-22T02:56:44.531Z,91.10
2019-03-22T02:59:11.146Z,91.70
2019-03-22T03:01:37.753Z,93.00
2019-03-22T03:04:04.677Z,93.80
2019-03-22T03:06:32.178Z,93.00
2019-03-22T03:08:59.133Z,92.80
2019-03-22T03:11:26.082Z,92.00
2019-03-22T03:13:53.165Z,92.20
2019-03-22T03:16:19.805Z,92.30
2019-03-22T03:18:46.451Z,92.50
2019-03-22T03:21:14.007Z,92.70
2019-03-22T03:23:40.904Z,92.40
2019-03-22T03:26:07.542Z,92.90
2019-03-22T03:28:37.085Z,92.80
2019-03-22T03:31:02.807Z,92.10
2019-03-22T03:33:29.683Z,91.30
2019-03-22T03:35:56.671Z,92.10
2019-03-22T03:38:23.527Z,92.90
2019-03-22T03:40:50.403Z,92.50
2019-03-22T03:43:17.158Z,92.80
2019-03-22T03:45:52.709Z,92.80
2019-03-22T03:48:19.645Z,93.00
2019-03-22T03:50:46.348Z,92.70
2019-03-22T03:53:13.196Z,95.10
2019-03-22T03:55:39.902Z,94.60
2019-03-22T03:58:06.578Z,93.70
2019-03-22T04:00:33.184Z,94.60
2019-03-22T04:02:59.999Z,94.60
2019-03-22T04:05:26.901Z,94.80
2019-03-22T04:07:53.516Z,95.50
2019-03-22T04:10:21.523Z,95.10
2019-03-22T04:12:49.332Z,94.20
2019-03-22T04:15:16.037Z,94.40
2019-03-22T04:26:04.426Z,94.80
2019-03-22T04:28:44.175Z,95.50
2019-03-22T04:31:16.777Z,96.00
2019-03-22T04:34:03.610Z,95.80
2019-03-22T04:36:32.478Z,94.00
2019-03-22T04:39:02.106Z,95.10
2019-03-22T04:41:31.983Z,95.10
2019-03-22T04:44:03.118Z,94.00
2019-03-22T04:46:31.799Z,93.10
2019-03-22T04:49:09.525Z,92.80
2019-03-22T04:51:37.391Z,92.50
2019-03-22T04:54:09.073Z,95.60
2019-03-22T04:56:36.942Z,95.40
2019-03-22T04:59:04.701Z,96.40
2019-03-22T05:01:31.509Z,97.50
2019-03-22T05:04:01.672Z,97.90
2019-03-22T05:06:28.514Z,97.20
2019-03-22T05:08:55.211Z,96.60
2019-03-22T05:11:22.104Z,95.60
2019-03-22T05:13:48.889Z,96.30
2019-03-22T05:16:15.579Z,95.40
2019-03-22T05:18:44.028Z,94.70
2019-03-22T05:21:10.762Z,96.30
2019-03-22T05:23:37.625Z,95.00
2019-03-22T05:26:05.212Z,93.40
2019-03-22T05:28:32.879Z,95.30
2019-03-22T05:30:59.481Z,96.20
2019-03-22T05:33:26.762Z,94.90
2019-03-22T05:35:54.676Z,94.70
2019-03-22T05:38:21.991Z,95.40
2019-03-22T05:40:48.672Z,96.10
2019-03-22T05:43:19.468Z,96.20
2019-03-22T05:45:47.135Z,94.70
2019-03-22T05:48:15.100Z,93.20
2019-03-22T05:50:53.834Z,93.80
2019-03-22T05:53:20.474Z,95.80
2019-03-22T05:55:47.378Z,94.80
2019-03-22T05:58:14.663Z,93.80
2019-03-22T06:00:42.845Z,93.60
2019-03-22T06:03:09.536Z,93.00
2019-03-22T06:05:37.601Z,92.10
2019-03-22T06:08:05.047Z,92.60
2019-03-22T06:10:31.948Z,92.20
2019-03-22T06:12:58.572Z,92.60
2019-03-22T06:15:26.005Z,91.00
2019-03-22T06:17:55.546Z,90.20
2019-03-22T06:20:22.494Z,90.30
2019-03-22T06:22:49.130Z,90.00
2019-03-22T06:25:16.215Z,89.40
2019-03-22T06:27:43.102Z,87.20
2019-03-22T06:30:10.165Z,89.00
2019-03-22T06:32:36.910Z,89.10
2019-03-22T06:35:03.784Z,90.00
2019-03-22T06:37:30.676Z,88.20
2019-03-22T06:39:57.713Z,87.00
2019-03-22T06:42:24.322Z,84.50
2019-03-22T06:44:51.019Z,82.20
2019-03-22T06:47:17.678Z,81.70
2019-03-22T06:49:44.305Z,82.80
2019-03-22T06:52:11.354Z,80.40
2019-03-22T06:54:38.380Z,80.50
2019-03-22T06:57:05.844Z,78.70
2019-03-22T06:59:32.864Z,77.90
2019-03-22T07:01:59.539Z,76.60
2019-03-22T07:04:26.164Z,77.10
2019-03-22T07:06:53.119Z,74.00
2019-03-22T07:09:20.165Z,73.80
2019-03-22T07:11:57.248Z,73.40
2019-03-22T07:17:13.174Z,69.90
2019-03-22T07:19:40.013Z,68.50
2019-03-22T07:27:40.401Z,66.20
2019-03-22T07:30:17.928Z,64.30
2019-03-22T07:32:37.300Z,64.10
2019-03-22T07:35:08.027Z,62.10
2019-03-22T07:37:35.630Z,61.80
2019-03-22T07:40:02.679Z,61.90
2019-03-22T07:42:29.351Z,61.30
2019-03-22T07:44:56.496Z,61.80
2019-03-22T07:47:25.363Z,60.80
2019-03-22T07:49:52.035Z,60.00
2019-03-22T07:55:05.522Z,58.80
2019-03-22T07:57:34.129Z,58.70
2019-03-22T08:00:05.183Z,57.50
2019-03-22T08:02:36.875Z,57.30
2019-03-22T08:05:03.487Z,55.70
2019-03-22T08:07:30.447Z,54.60
2019-03-22T08:09:58.432Z,54.20
2019-03-22T08:12:25.106Z,53.10
2019-03-22T08:17:41.456Z,52.50
2019-03-22T08:20:08.268Z,52.40
2019-03-22T08:22:35.170Z,51.30
2019-03-22T08:25:01.786Z,51.20
2019-03-22T08:27:28.725Z,50.10
2019-03-22T08:29:55.521Z,49.70
2019-03-22T08:32:23.098Z,48.70
2019-03-22T08:34:49.843Z,47.70
2019-03-22T08:37:18.111Z,47.90
2019-03-22T08:39:47.727Z,43.10
2019-03-22T08:42:14.177Z,44.00
2019-03-22T08:44:40.869Z,44.80
2019-03-22T08:47:07.831Z,43.20
2019-03-22T08:49:34.690Z,42.30
2019-03-22T08:52:01.434Z,43.50
2019-03-22T08:54:28.126Z,43.90
2019-03-22T08:56:55.049Z,43.50
2019-03-22T08:59:24.688Z,43.70
2019-03-22T09:01:52.310Z,44.80
2019-03-22T09:04:19.205Z,44.90
2019-03-22T09:06:47.121Z,43.90
2019-03-22T09:09:13.832Z,43.30
2019-03-22T09:11:40.685Z,45.40
2019-03-22T09:14:07.379Z,45.20
2019-03-22T09:16:34.088Z,45.60
2019-03-22T09:19:02.496Z,44.20
2019-03-22T09:21:29.119Z,44.80
2019-03-22T09:23:56.704Z,44.30
2019-03-22T09:26:23.623Z,44.10
2019-03-22T09:28:50.469Z,44.10
2019-03-22T09:31:17.081Z,43.90
2019-03-22T09:33:43.676Z,43.50
2019-03-22T09:36:10.287Z,42.40
2019-03-22T09:38:38.000Z,43.90
2019-03-22T09:41:04.861Z,43.20
2019-03-22T09:43:31.665Z,42.50
2019-03-22T09:46:00.699Z,41.70
2019-03-22T09:48:27.336Z,43.00
2019-03-22T09:50:54.032Z,42.60
2019-03-22T09:53:21.008Z,42.30
2019-03-22T09:55:47.991Z,41.80
2019-03-22T09:58:14.591Z,41.10
2019-03-22T10:00:41.169Z,41.20
2019-03-22T10:03:07.782Z,39.20
2019-03-22T10:05:34.449Z,40.90
2019-03-22T10:08:01.361Z,38.60
2019-03-22T10:10:28.523Z,38.30
2019-03-22T10:12:55.115Z,39.00
2019-03-22T10:15:22.067Z,37.10
2019-03-22T10:20:36.719Z,38.60
2019-03-22T10:23:22.306Z,38.70
2019-03-22T10:25:53.655Z,37.30
2019-03-22T10:28:22.634Z,36.50
2019-03-22T10:30:54.112Z,37.40
2019-03-22T10:33:25.609Z,37.00
2019-03-22T10:35:52.779Z,37.60
2019-03-22T10:38:30.989Z,37.30
2019-03-22T10:40:52.419Z,37.70
2019-03-22T10:43:19.404Z,37.00
2019-03-22T10:45:46.492Z,36.00
2019-03-22T10:48:15.423Z,38.50
2019-03-22T10:50:46.721Z,36.40
2019-03-22T10:53:17.470Z,35.80
2019-03-22T10:55:46.894Z,36.50
2019-03-22T10:58:21.369Z,37.50
2019-03-22T11:00:47.847Z,37.90
2019-03-22T11:03:14.290Z,37.30
2019-03-22T11:05:41.251Z,35.30
2019-03-22T11:08:08.149Z,35.00
2019-03-22T11:10:35.083Z,35.70
2019-03-22T11:13:01.833Z,36.00
2019-03-22T11:15:28.650Z,35.10
2019-03-22T11:17:55.569Z,35.30
2019-03-22T11:20:22.507Z,35.70
2019-03-22T11:22:49.106Z,34.70
2019-03-22T11:25:15.892Z,34.80
2019-03-22T11:27:42.540Z,35.70
2019-03-22T11:30:09.107Z,36.80
2019-03-22T11:32:35.951Z,36.30
2019-03-22T11:35:03.023Z,35.10
2019-03-22T11:37:29.622Z,35.80
2019-03-22T11:39:56.380Z,35.10
2019-03-22T11:42:24.343Z,35.60
2019-03-22T11:44:50.965Z,33.90
2019-03-22T11:47:17.612Z,34.60
2019-03-22T11:49:44.538Z,34.60
2019-03-22T11:52:11.178Z,34.50
2019-03-22T11:54:37.793Z,33.50
2019-03-22T11:57:04.674Z,34.50
2019-03-22T11:59:32.951Z,33.60
2019-03-22T12:01:59.873Z,34.70
2019-03-22T12:04:26.777Z,33.30
2019-03-22T12:06:53.958Z,35.50
2019-03-22T12:09:22.955Z,35.00
2019-03-22T12:11:50.296Z,33.60
2019-03-22T12:14:17.206Z,33.90
2019-03-22T12:16:43.876Z,34.00
2019-03-22T12:19:14.579Z,33.30
2019-03-22T12:21:41.189Z,33.80
2019-03-22T12:24:08.152Z,34.80
2019-03-22T12:26:35.419Z,32.90
2019-03-22T12:29:02.569Z,33.00
2019-03-22T12:31:29.795Z,32.40
2019-03-22T12:33:56.965Z,32.00
2019-03-22T12:36:25.650Z,33.80
2019-03-22T12:38:52.542Z,32.40
2019-03-22T12:41:19.744Z,33.60
2019-03-22T12:43:46.940Z,32.00
2019-03-22T12:46:13.890Z,32.60
2019-03-22T12:48:41.136Z,32.30
2019-03-22T12:51:08.058Z,31.60
2019-03-22T12:53:34.945Z,32.10
2019-03-22T12:56:02.264Z,32.70
2019-03-22T12:58:29.187Z,31.20
2019-03-22T13:00:56.381Z,31.90
2019-03-22T13:03:24.400Z,31.10
2019-03-22T13:05:51.363Z,32.20
2019-03-22T13:08:18.282Z,33.00
2019-03-22T13:10:45.159Z,31.40
2019-03-22T13:13:12.094Z,30.70
2019-03-22T13:15:38.702Z,31.70
2019-03-22T13:18:05.632Z,32.20
2019-03-22T13:20:32.550Z,30.50
2019-03-22T13:22:59.423Z,30.40
2019-03-22T13:25:26.674Z,30.50
2019-03-22T13:27:53.504Z,30.70
2019-03-22T13:30:20.428Z,30.20
2019-03-22T13:32:52.168Z,32.00
2019-03-22T13:35:16.021Z,32.00
2019-03-22T13:37:43.782Z,32.70
2019-03-22T13:40:10.703Z,30.10
2019-03-22T13:42:37.853Z,31.00
2019-03-22T13:45:19.730Z,30.40
2019-03-22T13:47:47.187Z,29.90
2019-03-22T13:50:14.143Z,30.30
2019-03-22T13:52:41.027Z,30.70
2019-03-22T13:55:08.320Z,30.60
2019-03-22T13:57:35.189Z,30.40
2019-03-22T14:00:01.903Z,29.60
2019-03-22T14:02:30.159Z,29.90
2019-03-22T14:04:56.765Z,30.00
2019-03-22T14:07:23.630Z,30.00
2019-03-22T14:09:52.045Z,29.70
2019-03-22T14:12:18.996Z,30.10
2019-03-22T14:14:47.154Z,29.90
2019-03-22T14:17:14.021Z,29.40
2019-03-22T14:19:40.913Z,29.60
2019-03-22T14:22:07.805Z,29.40
2019-03-22T14:24:35.004Z,29.10
2019-03-22T14:27:02.027Z,30.20
2019-03-22T14:29:28.609Z,29.70
2019-03-22T14:31:55.857Z,29.40
2019-03-22T14:34:23.089Z,29.50
2019-03-22T14:36:49.978Z,30.80
2019-03-22T14:39:16.900Z,29.50
2019-03-22T14:41:43.771Z,29.80
2019-03-22T14:44:10.739Z,29.70
2019-03-22T14:46:37.674Z,29.20
2019-03-22T14:49:04.709Z,29.40
2019-03-22T14:51:31.466Z,29.80
2019-03-22T14:53:58.771Z,29.20
2019-03-22T14:56:25.773Z,29.80
2019-03-22T14:58:52.836Z,29.90
2019-03-22T15:01:20.032Z,30.00
2019-03-22T15:03:46.802Z,29.60
2019-03-22T15:06:13.708Z,30.30
2019-03-22T15:08:40.821Z,30.00
2019-03-22T15:11:07.809Z,30.10
2019-03-22T15:13:34.671Z,29.80
2019-03-22T15:16:01.634Z,31.00
2019-03-22T15:18:28.498Z,29.70
2019-03-22T15:20:55.832Z,29.30
2019-03-22T15:23:23.171Z,29.40
2019-03-22T15:25:50.513Z,29.40
2019-03-22T15:28:17.108Z,29.60
2019-03-22T15:30:44.014Z,29.90
2019-03-22T15:33:10.801Z,29.50
2019-03-22T15:35:37.762Z,29.70
2019-03-22T15:38:04.759Z,29.90
2019-03-22T15:40:31.657Z,30.00
2019-03-22T15:42:58.500Z,29.70
2019-03-22T15:45:25.828Z,29.50
2019-03-22T15:47:52.966Z,29.40
2019-03-22T15:50:19.897Z,29.80
2019-03-22T15:52:46.849Z,29.30
2019-03-22T15:55:13.837Z,29.20
2019-03-22T15:57:40.609Z,29.80
2019-03-22T16:00:07.561Z,29.40
2019-03-22T16:02:34.548Z,30.10
2019-03-22T16:05:07.898Z,31.30
2019-03-22T16:07:34.820Z,30.70
2019-03-22T16:10:01.652Z,30.50
2019-03-22T16:12:28.566Z,31.20
2019-03-22T16:14:55.193Z,29.90
2019-03-22T16:17:22.159Z,30.70
2019-03-22T16:19:50.088Z,30.50
2019-03-22T16:22:16.990Z,29.70
2019-03-22T16:24:44.917Z,29.70
2019-03-22T16:27:11.788Z,29.70
2019-03-22T16:29:38.683Z,30.50
2019-03-22T16:32:07.074Z,30.00
2019-03-22T16:34:35.278Z,30.20
2019-03-22T16:37:03.128Z,30.30
2019-03-22T16:39:31.374Z,30.00
2019-03-22T16:41:58.261Z,30.40
2019-03-22T16:44:25.419Z,30.50
2019-03-22T16:46:53.292Z,31.20
2019-03-22T16:49:21.197Z,31.80
2019-03-22T16:51:48.026Z,32.90
2019-03-22T16:54:15.660Z,32.10
2019-03-22T16:56:42.412Z,32.30
2019-03-22T16:59:09.484Z,32.30
2019-03-22T17:01:37.127Z,33.30
2019-03-22T17:04:04.964Z,32.80
2019-03-22T17:06:32.206Z,34.70
2019-03-22T17:09:00.470Z,34.50
2019-03-22T17:14:12.143Z,34.00
2019-03-22T17:16:38.871Z,34.40
2019-03-22T17:19:05.585Z,34.70
2019-03-22T17:21:32.501Z,35.40
2019-03-22T17:24:00.395Z,35.80
2019-03-22T17:26:31.316Z,35.60
2019-03-22T17:29:00.066Z,35.90
2019-03-22T17:31:26.926Z,36.90
2019-03-22T17:33:53.767Z,37.20
2019-03-22T17:36:20.432Z,37.60
2019-03-22T17:38:47.137Z,37.60
2019-03-22T17:41:14.361Z,37.90
2019-03-22T17:43:41.091Z,37.90
2019-03-22T17:46:08.793Z,38.20
2019-03-22T17:48:35.454Z,38.00
2019-03-22T17:51:02.309Z,38.10
2019-03-22T17:53:29.261Z,39.20
2019-03-22T17:55:55.882Z,39.40
2019-03-22T17:58:22.703Z,39.70
2019-03-22T18:00:49.360Z,40.00
2019-03-22T18:03:16.955Z,40.00
2019-03-22T18:05:44.841Z,39.70
2019-03-22T18:08:11.438Z,39.70
2019-03-22T18:13:31.727Z,40.00
2019-03-22T18:15:58.598Z,40.50
2019-03-22T18:18:25.174Z,41.00
2019-03-22T18:20:53.772Z,41.40
2019-03-22T18:23:24.600Z,41.00
2019-03-22T18:26:04.697Z,40.90
2019-03-22T18:28:54.288Z,41.00
2019-03-22T18:31:16.636Z,41.80
2019-03-22T18:33:52.022Z,41.40
2019-03-22T18:36:14.675Z,41.90
2019-03-22T18:39:06.942Z,42.40
2019-03-22T18:41:12.149Z,42.90
2019-03-22T18:43:47.805Z,43.20
2019-03-22T18:46:12.177Z,43.70
2019-03-22T18:48:40.895Z,44.20
2019-03-22T18:51:09.352Z,44.80
2019-03-22T18:53:38.970Z,43.70
2019-03-22T18:56:19.996Z,43.10
2019-03-22T18:58:47.449Z,43.30
2019-03-22T19:01:19.719Z,43.10
2019-03-22T19:06:24.514Z,43.30
2019-03-22T19:08:50.392Z,43.50
2019-03-22T19:11:16.949Z,43.30
2019-03-22T19:13:45.651Z,43.90
2019-03-22T19:16:14.543Z,44.00
2019-03-22T19:18:49.287Z,43.80
2019-03-22T19:21:21.968Z,43.60
2019-03-22T19:23:50.583Z,44.00
2019-03-22T19:26:21.160Z,44.20
2019-03-22T19:28:52.594Z,44.20
2019-03-22T19:31:20.229Z,44.30
2019-03-22T19:33:49.132Z,44.60
2019-03-22T19:36:18.826Z,44.80
2019-03-22T19:38:48.606Z,45.20
2019-03-22T19:41:18.623Z,45.30
2019-03-22T19:43:45.476Z,46.40
2019-03-22T19:49:28.556Z,46.10
2019-03-22T19:51:58.586Z,45.70
2019-03-22T19:54:30.355Z,45.60
2019-03-22T19:57:01.546Z,46.00
2019-03-22T19:59:32.243Z,47.70
2019-03-22T20:02:01.009Z,46.50
2019-03-22T20:04:28.570Z,48.10
2019-03-22T20:06:55.448Z,48.40
2019-03-22T20:09:24.065Z,48.30
2019-03-22T20:11:52.776Z,48.70
2019-03-22T20:14:19.375Z,48.90
2019-03-22T20:16:46.095Z,49.10
2019-03-22T20:21:58.274Z,49.50
2019-03-22T20:24:25.944Z,49.90
2019-03-22T20:26:59.785Z,50.30
2019-03-22T20:29:27.451Z,50.40
2019-03-22T20:31:54.306Z,51.40
2019-03-22T20:34:21.205Z,51.70
2019-03-22T20:36:47.925Z,51.20
2019-03-22T20:39:14.615Z,51.30
2019-03-22T20:41:41.453Z,51.00
2019-03-22T20:44:08.903Z,50.70
2019-03-22T20:46:36.147Z,50.80
2019-03-22T20:49:05.068Z,52.00
2019-03-22T20:51:31.224Z,50.90
2019-03-22T20:53:57.861Z,51.20
2019-03-22T20:56:24.820Z,51.30
2019-03-22T20:58:51.833Z,51.10
2019-03-22T21:01:18.454Z,51.30
2019-03-22T21:03:45.189Z,52.00
2019-03-22T21:06:12.199Z,52.00
2019-03-22T21:08:38.926Z,53.00
2019-03-22T21:11:05.815Z,53.10
2019-03-22T21:13:32.502Z,52.90
2019-03-22T21:15:59.498Z,52.90
2019-03-22T21:18:26.081Z,53.30
2019-03-22T21:20:52.689Z,53.70
2019-03-22T21:23:19.658Z,53.50
2019-03-22T21:25:46.478Z,54.00
2019-03-22T21:28:13.633Z,54.90
2019-03-22T21:30:40.252Z,54.90
2019-03-22T21:33:08.244Z,55.00
2019-03-22T21:35:37.469Z,54.60
2019-03-22T21:38:10.792Z,53.70
2019-03-22T21:40:31.867Z,54.40
2019-03-22T21:43:00.349Z,53.70
2019-03-22T21:45:26.910Z,53.50
2019-03-22T21:47:53.787Z,53.60
2019-03-22T21:50:20.482Z,54.00
2019-03-22T21:52:47.097Z,55.00
2019-03-22T21:55:13.754Z,56.00
2019-03-22T21:57:40.555Z,57.40
2019-03-22T22:00:07.156Z,56.60
2019-03-22T22:02:34.788Z,56.50
2019-03-22T22:05:01.730Z,57.00
2019-03-22T22:07:28.612Z,57.20
2019-03-22T22:09:55.197Z,57.30
2019-03-22T22:12:21.839Z,56.50
2019-03-22T22:14:49.737Z,57.20
2019-03-22T22:17:16.612Z,57.90
2019-03-22T22:19:46.927Z,58.60
2019-03-22T22:22:18.016Z,58.20
2019-03-22T22:24:45.616Z,57.50
2019-03-22T22:27:18.029Z,58.60
2019-03-22T22:29:47.560Z,58.80
2019-03-22T22:32:25.833Z,58.60
2019-03-22T22:34:55.632Z,58.00
2019-03-22T22:40:14.749Z,58.90
2019-03-22T22:42:42.378Z,60.60
2019-03-22T22:45:10.633Z,62.70
2019-03-22T22:47:39.585Z,63.10
2019-03-22T22:50:12.343Z,63.40
2019-03-22T22:52:41.740Z,62.50
2019-03-22T22:55:21.031Z,63.10
2019-03-22T22:57:49.149Z,61.60
2019-03-22T23:00:16.321Z,61.70
2019-03-22T23:02:46.909Z,64.10
2019-03-22T23:05:18.576Z,63.10
2019-03-22T23:07:47.549Z,61.90
2019-03-22T23:10:20.980Z,62.50
2019-03-22T23:12:48.750Z,62.70
2019-03-22T23:15:18.065Z,62.30
2019-03-22T23:17:46.937Z,63.90
2019-03-22T23:20:16.961Z,62.60
2019-03-22T23:22:47.604Z,61.70
2019-03-22T23:25:37.030Z,62.40
2019-03-22T23:27:45.543Z,62.30
2019-03-22T23:30:16.766Z,64.60
2019-03-22T23:35:30.610Z,67.30
2019-03-22T23:37:58.018Z,67.70
2019-03-22T23:40:28.950Z,69.60
2019-03-22T23:42:57.143Z,68.90
2019-03-22T23:45:24.503Z,69.90
2019-03-22T23:47:52.947Z,68.40
2019-03-22T23:50:20.893Z,69.40
2019-03-22T23:52:47.831Z,70.90
2019-03-22T23:55:15.502Z,70.60
2019-03-22T23:57:44.277Z,71.80
